createdAt,value
2022-12-09T00:00:52.383Z,50.50
2022-12-09T00:01:52.576Z,51.20
2022-12-09T00:02:52.880Z,49.90
2022-12-09T00:03:53.055Z,49.20
2022-12-09T00:04:53.149Z,48.90
2022-12-09T00:05:53.200Z,51.40
2022-12-09T00:06:53.537Z,49.80
2022-12-09T00:07:53.888Z,50.60
2022-12-09T00:08:53.800Z,50.60
2022-12-09T00:09:53.897Z,53.60
2022-12-09T00:10:54.134Z,52.90
2022-12-09T00:11:54.280Z,53.20
2022-12-09T00:12:54.476Z,53.70
2022-12-09T00:13:54.783Z,52.10
2022-12-09T00:14:55.108Z,53.30
2022-12-09T00:15:55.351Z,52.90
2022-12-09T00:16:55.282Z,52.80
2022-12-09T00:17:55.406Z,51.20
2022-12-09T00:18:55.684Z,52.10
2022-12-09T00:19:55.709Z,53.40
2022-12-09T00:20:56.082Z,53.70
2022-12-09T00:21:56.217Z,52.80
2022-12-09T00:22:56.175Z,53.70
2022-12-09T00:23:56.602Z,54.60
2022-12-09T00:24:56.769Z,54.40
2022-12-09T00:25:56.864Z,54.90
2022-12-09T00:26:57.089Z,57.10
2022-12-09T00:27:57.046Z,55.50
2022-12-09T00:28:57.273Z,55.00
2022-12-09T00:29:57.470Z,55.90
2022-12-09T00:30:57.667Z,54.80
2022-12-09T00:31:58.094Z,54.90
2022-12-09T00:32:58.294Z,54.90
2022-12-09T00:33:58.361Z,54.80
2022-12-09T00:34:58.418Z,55.50
2022-12-09T00:35:58.549Z,56.00
2022-12-09T00:36:58.751Z,56.00
2022-12-09T00:37:59.097Z,54.90
2022-12-09T00:38:59.260Z,55.00
2022-12-09T00:39:59.310Z,55.80
2022-12-09T00:40:59.654Z,55.00
2022-12-09T00:41:59.693Z,55.80
2022-12-09T00:43:00.137Z,55.00
2022-12-09T00:44:00.070Z,55.40
2022-12-09T00:45:00.178Z,55.20
2022-12-09T00:46:00.330Z,55.10
2022-12-09T00:47:00.714Z,56.10
2022-12-09T00:48:00.658Z,55.60
2022-12-09T00:49:00.853Z,55.30
2022-12-09T00:50:01.044Z,56.20
2022-12-09T00:51:01.434Z,56.60
2022-12-09T00:52:01.633Z,56.90
2022-12-09T00:53:01.598Z,55.80
2022-12-09T00:54:02.049Z,55.60
2022-12-09T00:55:02.011Z,56.10
2022-12-09T00:56:02.251Z,55.80
2022-12-09T00:57:02.251Z,55.90
2022-12-09T00:58:02.547Z,56.40
2022-12-09T00:59:02.610Z,55.50
2022-12-09T01:00:02.935Z,55.50
2022-12-09T01:01:03.054Z,56.20
2022-12-09T01:02:03.212Z,56.10
2022-12-09T01:03:03.587Z,56.40
2022-12-09T01:04:03.674Z,56.00
2022-12-09T01:05:03.855Z,56.10
2022-12-09T01:06:03.679Z,56.10
2022-12-09T01:07:03.899Z,55.80
2022-12-09T01:08:04.078Z,57.00
2022-12-09T01:09:04.554Z,56.20
2022-12-09T01:10:05.011Z,55.60
2022-12-09T01:11:04.512Z,55.20
2022-12-09T01:12:04.670Z,55.30
2022-12-09T01:13:04.909Z,54.90
2022-12-09T01:14:05.231Z,56.00
2022-12-09T01:15:05.219Z,55.50
2022-12-09T01:16:05.525Z,54.30
2022-12-09T01:17:05.590Z,55.00
2022-12-09T01:18:05.711Z,56.00
2022-12-09T01:19:05.922Z,54.20
2022-12-09T01:20:06.451Z,54.20
2022-12-09T01:21:06.165Z,55.70
2022-12-09T01:22:06.395Z,55.20
2022-12-09T01:23:06.620Z,55.20
2022-12-09T01:24:06.882Z,55.10
2022-12-09T01:25:07.132Z,56.10
2022-12-09T01:26:06.972Z,55.40
2022-12-09T01:27:07.175Z,55.00
2022-12-09T01:28:07.401Z,54.90
2022-12-09T01:29:07.500Z,54.30
2022-12-09T01:30:08.169Z,53.70
2022-12-09T01:31:08.019Z,53.90
2022-12-09T01:32:08.227Z,54.30
2022-12-09T01:33:08.291Z,55.00
2022-12-09T01:34:08.349Z,54.60
2022-12-09T01:35:08.769Z,54.40
2022-12-09T01:36:08.743Z,54.80
2022-12-09T01:37:08.981Z,55.30
2022-12-09T01:38:09.389Z,55.50
2022-12-09T01:39:09.657Z,53.20
2022-12-09T01:40:09.863Z,53.60
2022-12-09T01:41:09.633Z,54.90
2022-12-09T01:42:10.055Z,56.70
2022-12-09T01:43:10.227Z,55.60
2022-12-09T01:44:10.462Z,55.30
2022-12-09T01:45:10.504Z,55.30
2022-12-09T01:46:10.546Z,54.70
2022-12-09T01:47:10.750Z,55.50
2022-12-09T01:48:11.088Z,55.60
2022-12-09T01:49:11.042Z,57.30
2022-12-09T01:50:11.739Z,56.00
2022-12-09T01:51:11.452Z,56.50
2022-12-09T01:52:11.656Z,55.80
2022-12-09T01:53:11.936Z,54.80
2022-12-09T01:54:12.097Z,55.30
2022-12-09T01:55:12.249Z,55.00
2022-12-09T01:56:12.707Z,55.20
2022-12-09T01:57:12.655Z,55.20
2022-12-09T01:58:12.878Z,55.60
2022-12-09T01:59:12.997Z,54.80
2022-12-09T02:00:13.609Z,54.20
2022-12-09T02:01:13.322Z,54.30
2022-12-09T02:02:13.733Z,56.00
2022-12-09T02:03:13.822Z,55.10
2022-12-09T02:04:13.864Z,54.30
2022-12-09T02:05:14.038Z,55.60
2022-12-09T02:06:14.157Z,54.20
2022-12-09T02:07:14.488Z,55.60
2022-12-09T02:08:14.606Z,54.40
2022-12-09T02:09:14.819Z,55.40
2022-12-09T02:10:14.845Z,53.80
2022-12-09T02:11:15.032Z,55.10
2022-12-09T02:12:15.389Z,54.30
2022-12-09T02:13:15.576Z,55.20
2022-12-09T02:14:15.857Z,53.90
2022-12-09T02:15:15.721Z,55.30
2022-12-09T02:16:16.187Z,53.60
2022-12-09T02:17:16.272Z,54.30
2022-12-09T02:18:16.320Z,55.60
2022-12-09T02:19:16.501Z,53.60
2022-12-09T02:20:16.772Z,53.60
2022-12-09T02:21:17.084Z,54.00
2022-12-09T02:22:16.919Z,54.40
2022-12-09T02:23:17.143Z,52.90
2022-12-09T02:24:17.457Z,54.00
2022-12-09T02:25:17.477Z,53.10
2022-12-09T02:26:17.613Z,54.50
2022-12-09T02:27:17.790Z,51.70
2022-12-09T02:28:18.025Z,52.20
2022-12-09T02:29:18.439Z,51.80
2022-12-09T02:30:18.395Z,51.10
2022-12-09T02:31:18.596Z,52.40
2022-12-09T02:32:19.101Z,54.00
2022-12-09T02:33:19.044Z,54.00
2022-12-09T02:34:19.063Z,52.40
2022-12-09T02:35:19.124Z,50.50
2022-12-09T02:36:19.355Z,50.30
2022-12-09T02:37:19.617Z,55.30
2022-12-09T02:38:19.776Z,59.50
2022-12-09T02:39:19.817Z,52.80
2022-12-09T02:40:20.003Z,52.30
2022-12-09T02:41:20.266Z,51.90
2022-12-09T02:42:20.532Z,50.90
2022-12-09T02:43:20.784Z,51.20
2022-12-09T02:44:20.633Z,51.30
2022-12-09T02:45:20.887Z,50.80
2022-12-09T02:46:21.032Z,52.60
2022-12-09T02:47:21.253Z,52.40
2022-12-09T02:48:21.373Z,51.50
2022-12-09T02:49:21.492Z,50.60
2022-12-09T02:50:21.729Z,50.10
2022-12-09T02:51:21.920Z,48.80
2022-12-09T02:52:21.870Z,50.30
2022-12-09T02:53:22.354Z,49.20
2022-12-09T02:54:22.374Z,48.30
2022-12-09T02:55:22.395Z,47.00
2022-12-09T02:56:22.436Z,47.50
2022-12-09T02:57:22.629Z,45.70
2022-12-09T02:58:23.030Z,59.30
2022-12-09T02:59:23.167Z,53.40
2022-12-09T03:00:23.446Z,48.00
2022-12-09T03:01:23.388Z,48.90
2022-12-09T03:02:23.662Z,47.80
2022-12-09T03:03:23.874Z,51.30
2022-12-09T03:04:23.919Z,49.40
2022-12-09T03:05:24.016Z,48.00
2022-12-09T03:06:24.214Z,44.80
2022-12-09T03:07:24.672Z,46.40
2022-12-09T03:08:24.718Z,46.80
2022-12-09T03:09:24.912Z,46.30
2022-12-09T03:10:25.186Z,45.70
2022-12-09T03:11:24.983Z,45.20
2022-12-09T03:12:25.193Z,46.10
2022-12-09T03:13:25.606Z,46.20
2022-12-09T03:14:25.567Z,45.70
2022-12-09T03:15:25.810Z,46.00
2022-12-09T03:16:26.134Z,46.30
2022-12-09T03:17:26.065Z,48.10
2022-12-09T03:18:26.212Z,48.00
2022-12-09T03:19:26.638Z,46.10
2022-12-09T03:20:26.515Z,46.20
2022-12-09T03:21:26.665Z,47.40
2022-12-09T03:22:27.017Z,61.20
2022-12-09T03:23:26.969Z,65.00
2022-12-09T03:24:27.216Z,46.90
2022-12-09T03:25:27.541Z,59.30
2022-12-09T03:26:27.527Z,44.90
2022-12-09T03:27:27.788Z,45.50
2022-12-09T03:28:27.878Z,44.10
2022-12-09T03:29:28.022Z,48.50
2022-12-09T03:30:28.073Z,46.70
2022-12-09T03:31:28.606Z,50.00
2022-12-09T03:32:28.499Z,46.50
2022-12-09T03:33:28.782Z,45.30
2022-12-09T03:34:28.726Z,46.20
2022-12-09T03:35:29.154Z,46.40
2022-12-09T03:36:29.364Z,44.60
2022-12-09T03:37:29.585Z,44.10
2022-12-09T03:38:29.482Z,45.20
2022-12-09T03:39:29.612Z,46.60
2022-12-09T03:40:30.071Z,51.30
2022-12-09T03:41:30.193Z,50.80
2022-12-09T03:42:30.412Z,54.60
2022-12-09T03:43:30.416Z,44.70
2022-12-09T03:44:30.650Z,48.90
2022-12-09T03:45:30.904Z,62.60
2022-12-09T03:46:30.880Z,55.60
2022-12-09T03:47:31.053Z,51.40
2022-12-09T03:48:31.364Z,46.30
2022-12-09T03:49:31.301Z,46.20
2022-12-09T03:50:31.541Z,45.90
2022-12-09T03:51:31.599Z,47.00
2022-12-09T03:52:31.971Z,45.70
2022-12-09T03:53:32.215Z,45.30
2022-12-09T03:54:32.134Z,48.00
2022-12-09T03:55:32.189Z,46.80
2022-12-09T03:56:32.328Z,66.30
2022-12-09T03:57:32.497Z,46.60
2022-12-09T03:58:32.747Z,49.20
2022-12-09T03:59:41.505Z,68.30
2022-12-09T04:00:32.969Z,63.10
2022-12-09T04:01:37.009Z,60.10
2022-12-09T04:02:34.265Z,81.70
2022-12-09T04:03:33.805Z,52.70
2022-12-09T04:04:33.931Z,56.90
2022-12-09T04:05:33.861Z,56.10
2022-12-09T04:06:33.926Z,58.00
2022-12-09T04:07:34.213Z,60.10
2022-12-09T04:08:34.569Z,78.70
2022-12-09T04:09:34.538Z,72.10
2022-12-09T04:10:34.595Z,59.90
2022-12-09T04:11:35.023Z,54.30
2022-12-09T04:12:35.196Z,47.70
2022-12-09T04:13:35.058Z,46.50
2022-12-09T04:14:35.233Z,65.30
2022-12-09T04:15:35.395Z,55.10
2022-12-09T04:16:35.654Z,66.60
2022-12-09T04:17:35.982Z,45.00
2022-12-09T04:18:36.133Z,45.60
2022-12-09T04:19:36.013Z,45.00
2022-12-09T04:20:36.282Z,44.70
2022-12-09T04:21:36.672Z,44.90
2022-12-09T04:22:36.483Z,45.70
2022-12-09T04:23:41.001Z,45.30
2022-12-09T04:24:37.839Z,49.20
2022-12-09T04:25:37.049Z,46.00
2022-12-09T04:26:37.407Z,70.10
2022-12-09T04:27:37.609Z,66.60
2022-12-09T04:28:37.482Z,81.10
2022-12-09T04:29:37.677Z,68.00
2022-12-09T04:30:37.832Z,53.60
2022-12-09T04:31:38.136Z,48.70
2022-12-09T04:32:38.191Z,46.70
2022-12-09T04:33:38.248Z,46.00
2022-12-09T04:34:38.427Z,46.40
2022-12-09T04:35:38.592Z,44.80
2022-12-09T04:36:38.916Z,45.60
2022-12-09T04:37:39.010Z,48.10
2022-12-09T04:38:39.155Z,45.30
2022-12-09T04:39:39.170Z,45.70
2022-12-09T04:40:39.683Z,45.50
2022-12-09T04:41:39.744Z,46.70
2022-12-09T04:42:39.852Z,45.80
2022-12-09T04:43:39.788Z,47.40
2022-12-09T04:44:39.985Z,47.30
2022-12-09T04:45:40.473Z,58.80
2022-12-09T04:46:40.441Z,47.80
2022-12-09T04:47:40.595Z,47.00
2022-12-09T04:48:40.615Z,46.40
2022-12-09T04:49:40.854Z,50.10
2022-12-09T04:50:41.202Z,44.30
2022-12-09T04:51:41.131Z,44.70
2022-12-09T04:52:41.202Z,43.30
2022-12-09T04:53:41.447Z,44.90
2022-12-09T04:54:41.760Z,43.70
2022-12-09T04:55:42.057Z,44.70
2022-12-09T04:56:41.944Z,44.40
2022-12-09T04:57:42.309Z,47.00
2022-12-09T04:58:42.348Z,50.10
2022-12-09T04:59:42.696Z,48.50
2022-12-09T05:00:42.682Z,47.40
2022-12-09T05:01:42.965Z,46.60
2022-12-09T05:02:43.028Z,45.00
2022-12-09T05:03:43.162Z,45.00
2022-12-09T05:04:43.357Z,48.50
2022-12-09T05:05:43.378Z,43.20
2022-12-09T05:06:43.678Z,42.90
2022-12-09T05:07:44.045Z,43.10
2022-12-09T05:08:43.991Z,42.60
2022-12-09T05:09:44.057Z,43.20
2022-12-09T05:10:44.625Z,42.30
2022-12-09T05:11:44.401Z,42.40
2022-12-09T05:12:44.843Z,49.20
2022-12-09T05:13:44.820Z,54.80
2022-12-09T05:14:44.897Z,47.20
2022-12-09T05:15:45.177Z,43.40
2022-12-09T05:16:45.481Z,42.40
2022-12-09T05:17:45.637Z,45.00
2022-12-09T05:18:45.862Z,44.20
2022-12-09T05:19:45.828Z,43.10
2022-12-09T05:20:46.088Z,42.70
2022-12-09T05:21:46.411Z,43.70
2022-12-09T05:22:46.216Z,44.40
2022-12-09T05:23:46.580Z,43.90
2022-12-09T05:24:46.774Z,43.60
2022-12-09T05:25:47.015Z,42.30
2022-12-09T05:26:46.880Z,43.30
2022-12-09T05:27:47.190Z,42.50
2022-12-09T05:28:47.555Z,42.30
2022-12-09T05:29:47.618Z,43.10
2022-12-09T05:30:48.168Z,44.40
2022-12-09T05:31:47.878Z,42.80
2022-12-09T05:32:48.161Z,43.40
2022-12-09T05:33:48.226Z,42.20
2022-12-09T05:34:48.564Z,42.00
2022-12-09T05:35:52.708Z,42.90
2022-12-09T05:36:49.746Z,40.90
2022-12-09T05:37:48.610Z,41.20
2022-12-09T05:38:49.094Z,40.20
2022-12-09T05:39:49.264Z,42.60
2022-12-09T05:40:49.149Z,42.20
2022-12-09T05:41:49.574Z,42.70
2022-12-09T05:42:49.653Z,41.90
2022-12-09T05:43:50.005Z,42.20
2022-12-09T05:44:49.916Z,42.40
2022-12-09T05:45:50.204Z,42.30
2022-12-09T05:46:50.533Z,41.90
2022-12-09T05:47:50.679Z,41.60
2022-12-09T05:48:50.846Z,41.40
2022-12-09T05:49:50.901Z,42.30
2022-12-09T05:50:51.100Z,42.40
2022-12-09T05:51:50.970Z,42.00
2022-12-09T05:52:51.214Z,40.90
2022-12-09T05:53:51.715Z,40.70
2022-12-09T05:54:51.905Z,41.70
2022-12-09T05:55:51.627Z,40.80
2022-12-09T05:56:51.963Z,40.90
2022-12-09T05:57:52.193Z,42.00
2022-12-09T05:58:52.198Z,41.40
2022-12-09T05:59:52.492Z,40.60
2022-12-09T06:00:52.701Z,40.40
2022-12-09T06:01:52.829Z,41.30
2022-12-09T06:02:53.306Z,41.70
2022-12-09T06:03:53.210Z,41.50
2022-12-09T06:04:53.626Z,42.60
2022-12-09T06:05:53.613Z,40.00
2022-12-09T06:06:53.789Z,41.00
2022-12-09T06:07:53.950Z,40.70
2022-12-09T06:08:54.224Z,41.00
2022-12-09T06:09:54.065Z,42.40
2022-12-09T06:10:54.542Z,42.60
2022-12-09T06:11:54.647Z,41.00
2022-12-09T06:12:54.816Z,41.20
2022-12-09T06:13:54.794Z,41.50
2022-12-09T06:14:54.960Z,40.10
2022-12-09T06:15:55.358Z,40.90
2022-12-09T06:16:55.230Z,41.70
2022-12-09T06:17:55.762Z,42.20
2022-12-09T06:18:55.968Z,41.00
2022-12-09T06:19:55.947Z,40.30
2022-12-09T06:20:56.169Z,41.30
2022-12-09T06:21:56.091Z,41.60
2022-12-09T06:22:56.341Z,42.30
2022-12-09T06:23:56.312Z,40.90
2022-12-09T06:24:57.299Z,41.00
2022-12-09T06:25:56.753Z,40.90
2022-12-09T06:26:56.932Z,40.90
2022-12-09T06:27:57.388Z,40.40
2022-12-09T06:28:57.615Z,41.90
2022-12-09T06:29:57.718Z,40.90
2022-12-09T06:30:57.907Z,41.10
2022-12-09T06:31:58.279Z,41.10
2022-12-09T06:32:58.480Z,41.90
2022-12-09T06:33:59.613Z,40.70
2022-12-09T06:34:58.853Z,41.10
2022-12-09T06:35:58.912Z,41.10
2022-12-09T06:36:58.838Z,41.30
2022-12-09T06:37:58.783Z,42.10
2022-12-09T06:39:05.938Z,41.70
2022-12-09T06:40:00.184Z,41.20
2022-12-09T06:40:59.508Z,41.70
2022-12-09T06:41:59.514Z,42.40
2022-12-09T06:42:59.747Z,42.30
2022-12-09T06:44:00.050Z,43.20
2022-12-09T06:45:00.000Z,42.90
2022-12-09T06:46:00.590Z,42.90
2022-12-09T06:47:00.500Z,41.60
2022-12-09T06:48:00.973Z,41.90
2022-12-09T06:49:01.033Z,42.30
2022-12-09T06:50:06.315Z,42.30
2022-12-09T06:51:02.116Z,42.30
2022-12-09T06:52:01.240Z,43.80
2022-12-09T06:53:01.429Z,42.50
2022-12-09T06:54:01.675Z,43.50
2022-12-09T06:55:01.649Z,43.20
2022-12-09T06:56:06.419Z,44.70
2022-12-09T06:57:03.171Z,45.10
2022-12-09T06:58:02.351Z,44.60
2022-12-09T06:59:02.131Z,44.90
2022-12-09T07:00:02.748Z,46.70
2022-12-09T07:01:02.879Z,46.80
2022-12-09T07:02:02.881Z,46.50
2022-12-09T07:03:02.858Z,45.80
2022-12-09T07:04:03.185Z,54.40
2022-12-09T07:05:03.177Z,56.00
2022-12-09T07:06:03.536Z,50.90
2022-12-09T07:07:03.509Z,54.40
2022-12-09T07:08:03.753Z,48.80
2022-12-09T07:09:03.971Z,50.60
2022-12-09T07:10:04.257Z,50.70
2022-12-09T07:11:04.532Z,49.70
2022-12-09T07:12:04.210Z,51.60
2022-12-09T07:13:04.356Z,48.40
2022-12-09T07:14:04.682Z,49.60
2022-12-09T07:15:05.639Z,49.60
2022-12-09T07:16:05.424Z,48.50
2022-12-09T07:17:05.530Z,48.90
2022-12-09T07:18:05.471Z,49.10
2022-12-09T07:19:05.641Z,49.40
2022-12-09T07:20:07.508Z,50.20
2022-12-09T07:21:06.177Z,49.20
2022-12-09T07:22:06.165Z,52.30
2022-12-09T07:23:06.028Z,52.40
2022-12-09T07:24:06.534Z,50.50
2022-12-09T07:25:06.992Z,53.80
2022-12-09T07:26:06.797Z,52.10
2022-12-09T07:27:10.693Z,50.40
2022-12-09T07:28:07.994Z,51.20
2022-12-09T07:29:07.276Z,51.10
2022-12-09T07:30:07.583Z,52.40
2022-12-09T07:31:07.780Z,51.50
2022-12-09T07:32:07.788Z,51.40
2022-12-09T07:33:07.895Z,50.40
2022-12-09T07:34:08.393Z,49.80
2022-12-09T07:35:08.492Z,50.00
2022-12-09T07:36:08.438Z,49.90
2022-12-09T07:37:08.538Z,48.90
2022-12-09T07:38:08.641Z,48.50
2022-12-09T07:39:08.627Z,50.30
2022-12-09T07:40:08.728Z,52.80
2022-12-09T07:41:08.894Z,54.10
2022-12-09T07:42:08.980Z,56.50
2022-12-09T07:43:09.456Z,54.60
2022-12-09T07:44:09.383Z,53.30
2022-12-09T07:45:09.644Z,53.50
2022-12-09T07:46:09.921Z,52.10
2022-12-09T07:47:10.090Z,52.30
2022-12-09T07:48:10.197Z,51.00
2022-12-09T07:49:10.155Z,50.00
2022-12-09T07:50:10.492Z,51.50
2022-12-09T07:51:10.296Z,60.00
2022-12-09T07:52:10.411Z,52.50
2022-12-09T07:53:10.610Z,50.40
2022-12-09T07:54:11.132Z,52.70
2022-12-09T07:55:11.164Z,52.00
2022-12-09T07:56:11.176Z,56.50
2022-12-09T07:57:11.383Z,52.70
2022-12-09T07:58:11.785Z,55.20
2022-12-09T07:59:11.644Z,53.30
2022-12-09T08:00:12.145Z,52.40
2022-12-09T08:01:12.117Z,51.80
2022-12-09T08:02:12.017Z,52.20
2022-12-09T08:03:12.398Z,50.70
2022-12-09T08:04:12.649Z,52.90
2022-12-09T08:05:13.396Z,61.30
2022-12-09T08:06:12.955Z,54.30
2022-12-09T08:07:13.797Z,60.50
2022-12-09T08:08:13.628Z,53.50
2022-12-09T08:09:13.561Z,78.70
2022-12-09T08:10:13.518Z,56.70
2022-12-09T08:11:13.792Z,56.00
2022-12-09T08:12:13.814Z,52.60
2022-12-09T08:13:14.159Z,52.10
2022-12-09T08:14:14.290Z,53.60
2022-12-09T08:15:14.921Z,50.30
2022-12-09T08:16:14.431Z,52.00
2022-12-09T08:17:14.929Z,51.80
2022-12-09T08:18:15.002Z,56.40
2022-12-09T08:19:15.424Z,56.50
2022-12-09T08:20:15.609Z,56.50
2022-12-09T08:21:15.395Z,59.40
2022-12-09T08:22:15.460Z,68.70
2022-12-09T08:23:16.641Z,49.10
2022-12-09T08:24:15.925Z,48.80
2022-12-09T08:25:16.484Z,48.10
2022-12-09T08:26:16.152Z,48.60
2022-12-09T08:27:16.338Z,48.20
2022-12-09T08:28:16.437Z,47.20
2022-12-09T08:29:16.828Z,49.60
2022-12-09T08:30:17.049Z,48.20
2022-12-09T08:31:17.135Z,50.00
2022-12-09T08:32:17.133Z,50.40
2022-12-09T08:33:17.400Z,47.60
2022-12-09T08:34:17.624Z,49.90
2022-12-09T08:35:17.701Z,48.90
2022-12-09T08:36:17.467Z,48.80
2022-12-09T08:37:17.689Z,57.40
2022-12-09T08:38:17.971Z,55.20
2022-12-09T08:39:18.191Z,52.10
2022-12-09T08:40:18.533Z,52.40
2022-12-09T08:41:18.344Z,59.70
2022-12-09T08:42:18.388Z,53.80
2022-12-09T08:43:18.603Z,49.20
2022-12-09T08:44:18.877Z,45.20
2022-12-09T08:45:19.361Z,47.90
2022-12-09T08:46:19.623Z,44.70
2022-12-09T08:47:19.681Z,45.10
2022-12-09T08:48:19.831Z,45.10
2022-12-09T08:49:20.232Z,48.80
2022-12-09T08:50:19.927Z,46.70
2022-12-09T08:51:19.815Z,48.20
2022-12-09T08:52:20.415Z,45.70
2022-12-09T08:53:20.419Z,44.90
2022-12-09T08:54:20.824Z,45.70
2022-12-09T08:55:20.430Z,47.90
2022-12-09T08:56:20.742Z,46.30
2022-12-09T08:57:20.988Z,48.30
2022-12-09T08:58:21.268Z,45.80
2022-12-09T08:59:21.525Z,46.60
2022-12-09T09:00:21.618Z,47.30
2022-12-09T09:01:21.755Z,45.10
2022-12-09T09:02:22.028Z,48.90
2022-12-09T09:03:21.959Z,46.20
2022-12-09T09:04:22.248Z,47.70
2022-12-09T09:05:22.317Z,51.00
2022-12-09T09:06:22.433Z,43.80
2022-12-09T09:07:22.761Z,41.50
2022-12-09T09:08:22.806Z,42.30
2022-12-09T09:09:23.341Z,44.40
2022-12-09T09:10:30.303Z,49.00
2022-12-09T09:11:23.377Z,43.60
2022-12-09T09:12:23.446Z,42.60
2022-12-09T09:13:23.794Z,43.80
2022-12-09T09:14:23.650Z,44.00
2022-12-09T09:15:23.932Z,41.10
2022-12-09T09:16:24.096Z,43.60
2022-12-09T09:17:24.674Z,44.00
2022-12-09T09:18:24.118Z,45.30
2022-12-09T09:19:24.389Z,43.10
2022-12-09T09:20:24.832Z,47.80
2022-12-09T09:21:24.958Z,56.90
2022-12-09T09:22:24.882Z,48.20
2022-12-09T09:23:25.012Z,46.60
2022-12-09T09:24:25.390Z,50.70
2022-12-09T09:25:25.559Z,46.40
2022-12-09T09:26:26.149Z,48.90
2022-12-09T09:27:25.631Z,50.40
2022-12-09T09:28:30.627Z,45.90
2022-12-09T09:29:27.021Z,44.50
2022-12-09T09:30:26.144Z,45.10
2022-12-09T09:31:26.664Z,51.30
2022-12-09T09:32:26.545Z,45.40
2022-12-09T09:33:26.539Z,43.80
2022-12-09T09:34:26.948Z,46.80
2022-12-09T09:35:26.656Z,54.50
2022-12-09T09:36:27.123Z,49.20
2022-12-09T09:37:27.146Z,43.90
2022-12-09T09:38:27.107Z,56.20
2022-12-09T09:39:27.396Z,48.00
2022-12-09T09:40:27.585Z,60.00
2022-12-09T09:41:27.896Z,46.30
2022-12-09T09:42:27.837Z,50.70
2022-12-09T09:43:27.853Z,47.60
2022-12-09T09:44:28.139Z,62.30
2022-12-09T09:45:28.139Z,66.70
2022-12-09T09:46:28.600Z,48.20
2022-12-09T09:47:31.607Z,54.90
2022-12-09T09:48:29.665Z,48.10
2022-12-09T09:49:28.879Z,44.60
2022-12-09T09:50:28.878Z,47.30
2022-12-09T09:51:28.732Z,56.80
2022-12-09T09:52:28.998Z,55.50
2022-12-09T09:53:29.404Z,44.90
2022-12-09T09:54:29.264Z,50.10
2022-12-09T09:55:29.255Z,44.40
2022-12-09T09:56:29.411Z,48.40
2022-12-09T09:57:30.015Z,48.30
2022-12-09T09:58:30.251Z,41.50
2022-12-09T09:59:37.401Z,49.70
2022-12-09T10:00:30.383Z,45.50
2022-12-09T10:01:30.650Z,41.90
2022-12-09T10:02:30.960Z,47.40
2022-12-09T10:03:30.779Z,57.80
2022-12-09T10:04:31.068Z,59.00
2022-12-09T10:05:31.511Z,43.90
2022-12-09T10:06:31.256Z,43.60
2022-12-09T10:07:31.342Z,39.80
2022-12-09T10:08:31.490Z,39.50
2022-12-09T10:09:32.076Z,38.70
2022-12-09T10:10:31.784Z,42.70
2022-12-09T10:11:32.082Z,45.80
2022-12-09T10:12:32.608Z,46.80
2022-12-09T10:13:32.790Z,46.70
2022-12-09T10:14:32.474Z,41.90
2022-12-09T10:15:32.742Z,36.60
2022-12-09T10:16:32.937Z,35.80
2022-12-09T10:17:33.076Z,35.00
2022-12-09T10:18:33.023Z,34.40
2022-12-09T10:19:33.609Z,36.20
2022-12-09T10:20:33.178Z,34.40
2022-12-09T10:21:33.489Z,32.90
2022-12-09T10:22:33.751Z,33.20
2022-12-09T10:23:34.207Z,31.80
2022-12-09T10:24:39.245Z,33.20
2022-12-09T10:25:35.396Z,32.60
2022-12-09T10:26:34.405Z,31.50
2022-12-09T10:27:34.230Z,31.60
2022-12-09T10:28:34.564Z,30.60
2022-12-09T10:29:34.388Z,31.10
2022-12-09T10:30:41.682Z,33.50
2022-12-09T10:31:35.939Z,32.20
2022-12-09T10:32:34.848Z,30.80
2022-12-09T10:33:35.513Z,30.30
2022-12-09T10:34:35.634Z,31.10
2022-12-09T10:35:35.699Z,29.40
2022-12-09T10:36:36.646Z,31.60
2022-12-09T10:37:35.497Z,33.50
2022-12-09T10:38:35.775Z,32.70
2022-12-09T10:39:36.278Z,28.40
2022-12-09T10:40:36.265Z,29.60
2022-12-09T10:41:36.251Z,30.20
2022-12-09T10:42:36.707Z,29.20
2022-12-09T10:43:36.544Z,30.10
2022-12-09T10:44:36.804Z,36.20
2022-12-09T10:46:14.962Z,32.80
2022-12-09T10:46:38.001Z,33.60
2022-12-09T10:47:37.317Z,40.20
2022-12-09T10:48:37.646Z,35.90
2022-12-09T10:49:37.822Z,31.50
2022-12-09T10:50:37.606Z,35.40
2022-12-09T10:51:37.601Z,34.30
2022-12-09T10:52:37.845Z,29.10
2022-12-09T10:53:38.239Z,29.40
2022-12-09T10:54:37.960Z,28.60
2022-12-09T10:55:38.174Z,28.20
2022-12-09T10:56:38.653Z,29.70
2022-12-09T10:57:38.757Z,27.90
2022-12-09T10:58:38.686Z,28.30
2022-12-09T10:59:38.841Z,28.50
2022-12-09T11:00:40.297Z,27.00
2022-12-09T11:01:39.258Z,28.80
2022-12-09T11:02:39.719Z,28.10
2022-12-09T11:03:39.746Z,28.80
2022-12-09T11:04:40.038Z,27.50
2022-12-09T11:05:40.319Z,27.20
2022-12-09T11:06:39.974Z,26.00
2022-12-09T11:07:40.146Z,25.50
2022-12-09T11:08:40.712Z,25.90
2022-12-09T11:09:40.610Z,25.20
2022-12-09T11:10:41.068Z,24.70
2022-12-09T11:11:41.144Z,24.20
2022-12-09T11:12:41.737Z,24.30
2022-12-09T11:13:41.242Z,23.30
2022-12-09T11:14:41.432Z,24.40
2022-12-09T11:15:41.481Z,24.10
2022-12-09T11:16:41.781Z,22.70
2022-12-09T11:17:41.539Z,23.70
2022-12-09T11:18:41.961Z,24.90
2022-12-09T11:19:41.859Z,24.80
2022-12-09T11:20:42.152Z,23.60
2022-12-09T11:21:42.351Z,23.50
2022-12-09T11:22:42.451Z,23.50
2022-12-09T11:23:42.569Z,22.90
2022-12-09T11:24:42.616Z,23.80
2022-12-09T11:25:42.684Z,25.60
2022-12-09T11:26:43.288Z,23.30
2022-12-09T11:27:43.364Z,23.90
2022-12-09T11:28:43.344Z,24.90
2022-12-09T11:29:43.617Z,25.40
2022-12-09T11:31:04.898Z,23.80
2022-12-09T11:31:44.818Z,24.20
2022-12-09T11:32:44.061Z,28.20
2022-12-09T11:33:44.153Z,28.60
2022-12-09T11:34:44.064Z,28.10
2022-12-09T11:35:44.341Z,32.50
2022-12-09T11:36:44.496Z,30.40
2022-12-09T11:37:44.308Z,29.80
2022-12-09T11:38:45.365Z,32.50
2022-12-09T11:39:44.666Z,32.70
2022-12-09T11:40:44.802Z,34.10
2022-12-09T11:41:44.980Z,34.60
2022-12-09T11:42:45.138Z,34.00
2022-12-09T11:43:45.320Z,37.20
2022-12-09T11:44:45.506Z,35.30
2022-12-09T11:45:45.671Z,36.40
2022-12-09T11:46:45.846Z,35.90
2022-12-09T11:48:47.092Z,39.20
2022-12-09T11:49:46.304Z,36.90
2022-12-09T11:50:46.417Z,71.90
2022-12-09T11:51:46.467Z,35.60
2022-12-09T11:52:46.623Z,35.10
2022-12-09T11:53:46.804Z,36.60
2022-12-09T11:54:46.985Z,38.10
2022-12-09T11:55:47.155Z,35.80
2022-12-09T11:56:47.387Z,40.00
2022-12-09T11:57:47.424Z,41.90
2022-12-09T11:58:47.559Z,35.30
2022-12-09T11:59:47.734Z,33.90
2022-12-09T12:00:47.908Z,35.00
2022-12-09T12:01:48.139Z,34.70
2022-12-09T12:02:48.266Z,34.10
2022-12-09T12:03:48.516Z,33.70
2022-12-09T12:04:48.613Z,31.80
2022-12-09T12:05:48.830Z,32.60
2022-12-09T12:06:48.919Z,32.50
2022-12-09T12:07:49.306Z,37.10
2022-12-09T12:08:49.491Z,40.70
2022-12-09T12:09:49.261Z,42.60
2022-12-09T12:10:49.424Z,47.90
2022-12-09T12:11:49.595Z,44.40
2022-12-09T12:12:49.747Z,41.00
2022-12-09T12:13:49.918Z,39.10
2022-12-09T12:14:50.100Z,36.40
2022-12-09T12:15:50.245Z,36.30
2022-12-09T12:16:50.408Z,35.20
2022-12-09T12:17:50.683Z,35.40
2022-12-09T12:18:50.786Z,37.90
2022-12-09T12:19:50.873Z,36.70
2022-12-09T12:20:51.033Z,37.50
2022-12-09T12:21:51.211Z,37.80
2022-12-09T12:22:54.643Z,38.20
2022-12-09T12:23:51.539Z,37.40
2022-12-09T12:24:51.722Z,39.10
2022-12-09T12:25:51.923Z,40.10
2022-12-09T12:26:51.963Z,43.20
2022-12-09T12:27:52.125Z,45.50
2022-12-09T12:28:58.042Z,40.80
2022-12-09T12:29:53.394Z,42.10
2022-12-09T12:30:52.558Z,41.60
2022-12-09T12:31:52.773Z,41.00
2022-12-09T12:33:40.675Z,41.70
2022-12-09T12:34:16.010Z,40.20
2022-12-09T12:34:54.046Z,42.80
2022-12-09T12:35:53.214Z,41.40
2022-12-09T12:36:53.366Z,42.30
2022-12-09T12:37:53.545Z,41.90
2022-12-09T12:38:53.689Z,42.60
2022-12-09T12:39:53.860Z,42.60
2022-12-09T12:40:54.063Z,41.50
2022-12-09T12:41:54.233Z,42.40
2022-12-09T12:42:54.412Z,41.80
2022-12-09T12:43:54.567Z,42.70
2022-12-09T12:44:54.730Z,42.60
2022-12-09T12:45:55.258Z,41.80
2022-12-09T12:46:54.976Z,41.30
2022-12-09T12:47:55.218Z,41.70
2022-12-09T12:48:55.273Z,41.80
2022-12-09T12:49:55.479Z,40.90
2022-12-09T12:50:55.666Z,39.70
2022-12-09T12:51:55.828Z,41.60
2022-12-09T12:52:56.857Z,41.30
2022-12-09T12:53:56.147Z,41.00
2022-12-09T12:54:56.303Z,41.40
2022-12-09T12:55:56.503Z,44.90